Time;durP1;ratioP1;P1;durP2;ratioP2;P2;SDS_P1;SDS_P2;PMS_P1;PMS_P2;Temp;Humidity;BMP_temperature;BMP_pressure;BME280_temperature;BME280_humidity;BME280_pressure;Samples;Min_cycle;Max_cycle;Signal;HPM_P1;HPM_P2
2024/01/22 00:01:26;;;;;;;7.80;3.55;;;9.60;99.90;;;;;;5001016;28;20155;-64
2024/01/22 00:03:52;;;;;;;8.20;3.58;;;9.60;99.90;;;;;;5001157;28;20065;-63
2024/01/22 00:06:18;;;;;;;8.73;3.05;;;9.60;99.90;;;;;;5001015;28;20038;-67
2024/01/22 00:08:44;;;;;;;5.53;2.95;;;9.70;99.90;;;;;;5000990;28;20034;-63
2024/01/22 00:11:11;;;;;;;7.43;3.10;;;9.70;99.90;;;;;;5000517;28;20096;-64
2024/01/22 00:13:37;;;;;;;5.63;2.63;;;9.80;99.90;;;;;;5000195;28;20042;-66
2024/01/22 00:16:03;;;;;;;7.78;3.25;;;9.90;99.90;;;;;;5000867;28;20108;-62
2024/01/22 00:18:32;;;;;;;5.63;3.08;;;9.90;99.90;;;;;;5000035;28;20045;-60
2024/01/22 00:20:58;;;;;;;3.35;2.42;;;10.00;99.90;;;;;;5000784;28;20313;-61
2024/01/22 00:23:24;;;;;;;6.53;2.88;;;10.00;99.90;;;;;;4999991;28;20049;-65
2024/01/22 00:25:50;;;;;;;3.58;2.53;;;9.90;99.90;;;;;;4983734;28;20321;-63
2024/01/22 00:28:16;;;;;;;5.53;2.72;;;10.00;99.90;;;;;;5000781;28;20496;-64
2024/01/22 00:30:42;;;;;;;4.63;2.53;;;10.00;99.90;;;;;;5000830;28;20042;-62
2024/01/22 00:33:08;;;;;;;6.72;2.70;;;10.00;99.90;;;;;;5000380;28;20050;-64
2024/01/22 00:35:34;;;;;;;6.32;2.50;;;10.10;99.90;;;;;;4999804;28;20034;-62
2024/01/22 00:37:59;;;;;;;4.97;2.28;;;10.10;99.90;;;;;;5000592;28;20398;-62
2024/01/22 00:40:25;;;;;;;4.57;2.30;;;10.20;99.90;;;;;;4999636;28;20065;-61
2024/01/22 00:42:51;;;;;;;4.75;2.38;;;10.20;99.90;;;;;;5000402;28;20031;-63
2024/01/22 00:45:17;;;;;;;4.43;2.08;;;10.20;99.90;;;;;;4999594;28;20064;-62
2024/01/22 00:47:42;;;;;;;4.32;2.20;;;10.20;99.90;;;;;;4999560;28;20045;-62
2024/01/22 00:50:08;;;;;;;4.47;1.85;;;10.20;99.90;;;;;;4999480;28;20030;-62
2024/01/22 00:52:34;;;;;;;3.58;2.20;;;10.30;99.90;;;;;;5000184;28;20366;-64
2024/01/22 00:55:00;;;;;;;5.63;2.20;;;10.30;99.90;;;;;;5000301;28;20072;-62
2024/01/22 00:57:26;;;;;;;2.85;2.10;;;10.40;99.90;;;;;;4999353;28;20046;-62
2024/01/22 00:59:51;;;;;;;4.38;2.08;;;10.40;99.90;;;;;;5000028;28;20453;-61
2024/01/22 01:02:17;;;;;;;4.50;1.90;;;10.40;99.90;;;;;;4999375;28;20121;-61
2024/01/22 01:04:43;;;;;;;7.50;2.10;;;10.40;99.90;;;;;;4999929;28;20041;-62
2024/01/22 01:07:09;;;;;;;4.00;1.83;;;10.40;99.90;;;;;;4999066;28;20038;-62
2024/01/22 01:09:35;;;;;;;2.50;1.70;;;10.60;99.90;;;;;;4998816;28;20465;-65
2024/01/22 01:12:01;;;;;;;3.00;1.70;;;10.60;99.90;;;;;;4999092;28;20034;-61
2024/01/22 01:14:26;;;;;;;2.63;1.50;;;10.60;99.90;;;;;;4999206;28;20031;-63
2024/01/22 01:16:52;;;;;;;2.83;1.65;;;10.60;99.90;;;;;;4999936;28;20066;-59
2024/01/22 01:19:18;;;;;;;4.32;1.70;;;10.60;99.90;;;;;;4999051;28;20042;-61
2024/01/22 01:21:44;;;;;;;4.75;1.45;;;10.70;99.90;;;;;;4982678;28;20062;-60
2024/01/22 01:24:09;;;;;;;3.72;1.48;;;10.90;99.90;;;;;;4999586;28;20088;-61
2024/01/22 01:26:42;;;;;;;4.65;1.63;;;11.00;99.90;;;;;;4999621;28;20398;-62
2024/01/22 01:29:09;;;;;;;2.10;1.63;;;10.90;99.90;;;;;;4999530;28;20038;-64
2024/01/22 01:31:35;;;;;;;2.75;1.50;;;10.90;99.90;;;;;;4999340;28;20047;-60
2024/01/22 01:34:01;;;;;;;2.40;1.30;;;10.90;99.90;;;;;;4999404;28;20049;-62
2024/01/22 01:36:27;;;;;;;3.47;1.40;;;11.00;99.90;;;;;;4999372;28;20031;-60
2024/01/22 01:38:53;;;;;;;2.33;1.35;;;11.00;99.90;;;;;;4999332;28;20035;-59
2024/01/22 01:41:18;;;;;;;3.38;1.27;;;11.00;99.90;;;;;;4999199;28;20350;-63
2024/01/22 01:43:44;;;;;;;2.85;1.30;;;11.00;99.90;;;;;;4999262;28;20306;-63
2024/01/22 01:46:10;;;;;;;3.15;1.20;;;11.00;99.90;;;;;;4999643;28;20038;-64
2024/01/22 01:48:36;;;;;;;3.08;1.20;;;11.10;99.90;;;;;;4998442;28;20513;-60
2024/01/22 01:51:03;;;;;;;2.67;1.30;;;11.10;99.90;;;;;;4999059;28;20042;-60
2024/01/22 01:53:29;;;;;;;3.15;1.30;;;11.10;99.90;;;;;;4998386;28;20038;-62
2024/01/22 01:55:56;;;;;;;1.63;1.20;;;11.10;99.90;;;;;;4999063;28;20039;-64
2024/01/22 01:58:23;;;;;;;2.13;1.10;;;11.10;99.90;;;;;;4998932;28;20046;-62
2024/01/22 02:00:51;;;;;;;3.20;1.10;;;11.10;99.90;;;;;;5014457;28;20062;-62
2024/01/22 02:03:17;;;;;;;2.33;1.10;;;11.00;99.90;;;;;;4998855;28;20417;-62
2024/01/22 02:05:42;;;;;;;1.92;1.10;;;11.20;99.90;;;;;;4998118;28;20326;-62
2024/01/22 02:08:08;;;;;;;2.10;1.20;;;11.10;99.90;;;;;;4998881;28;20340;-63
2024/01/22 02:10:34;;;;;;;3.25;1.25;;;11.20;99.90;;;;;;4998798;28;20109;-63
2024/01/22 02:13:06;;;;;;;2.83;0.90;;;11.20;99.90;;;;;;4998054;28;20030;-62
2024/01/22 02:15:33;;;;;;;2.97;0.90;;;11.30;99.90;;;;;;4998720;28;20100;-61
2024/01/22 02:18:02;;;;;;;2.05;0.80;;;11.30;99.90;;;;;;4997992;28;20026;-61
2024/01/22 02:20:29;;;;;;;1.77;1.05;;;11.20;99.90;;;;;;4997583;28;20056;-60
2024/01/22 02:23:00;;;;;;;1.55;1.10;;;11.20;99.90;;;;;;4997852;28;20092;-61
2024/01/22 02:25:26;;;;;;;2.10;0.93;;;11.10;99.90;;;;;;4998526;28;20301;-61
2024/01/22 02:27:52;;;;;;;3.30;1.20;;;11.00;99.90;;;;;;4998604;28;20026;-59
2024/01/22 02:30:18;;;;;;;2.75;0.80;;;11.10;99.90;;;;;;4998378;28;20085;-66
2024/01/22 02:32:44;;;;;;;1.02;0.90;;;11.30;99.90;;;;;;4998111;28;20058;-60
2024/01/22 02:35:09;;;;;;;1.05;0.90;;;11.20;99.90;;;;;;4998269;28;20097;-59
2024/01/22 02:37:37;;;;;;;1.88;0.73;;;11.20;99.90;;;;;;4997574;28;20042;-62
2024/01/22 02:40:03;;;;;;;3.05;1.13;;;11.10;99.90;;;;;;4997346;28;20042;-60
2024/01/22 02:42:29;;;;;;;1.90;0.80;;;11.20;99.90;;;;;;4981451;28;20054;-62
2024/01/22 02:44:55;;;;;;;1.45;1.17;;;11.20;99.90;;;;;;4998251;28;20060;-61
2024/01/22 02:47:20;;;;;;;1.55;0.90;;;11.30;99.90;;;;;;4998077;28;20088;-59
2024/01/22 02:49:46;;;;;;;1.95;0.90;;;11.30;99.90;;;;;;4998250;28;20030;-60
2024/01/22 02:52:12;;;;;;;1.83;1.00;;;11.40;99.90;;;;;;4997454;28;20037;-61
2024/01/22 02:54:38;;;;;;;3.03;0.90;;;11.30;99.90;;;;;;4997196;28;20038;-60
2024/01/22 02:57:04;;;;;;;1.13;0.77;;;11.30;99.90;;;;;;4997958;28;20117;-61
2024/01/22 02:59:30;;;;;;;1.30;0.98;;;11.10;99.90;;;;;;4997922;28;20030;-59
2024/01/22 03:01:56;;;;;;;1.55;0.77;;;11.00;99.90;;;;;;4997182;28;20030;-61
2024/01/22 03:04:22;;;;;;;1.92;1.05;;;10.90;99.90;;;;;;4980914;28;20041;-61
2024/01/22 03:06:48;;;;;;;1.63;0.88;;;10.90;99.90;;;;;;4997825;28;20113;-60
2024/01/22 03:09:15;;;;;;;2.38;1.20;;;10.90;99.90;;;;;;4997791;28;20100;-59
2024/01/22 03:11:40;;;;;;;1.70;0.95;;;10.90;99.90;;;;;;4997031;28;20117;-59
2024/01/22 03:14:06;;;;;;;3.47;0.75;;;10.90;99.90;;;;;;4997744;28;20509;-59
2024/01/22 03:16:32;;;;;;;2.00;1.20;;;11.00;99.90;;;;;;4996929;28;20034;-59
2024/01/22 03:18:59;;;;;;;2.92;0.88;;;11.00;99.90;;;;;;4996917;28;20398;-58
2024/01/22 03:21:24;;;;;;;1.63;0.80;;;11.10;99.90;;;;;;4997571;28;20425;-58
2024/01/22 03:23:50;;;;;;;0.85;0.70;;;11.10;99.90;;;;;;4997521;28;20034;-61
2024/01/22 03:26:23;;;;;;;3.65;1.17;;;11.10;99.90;;;;;;4996851;28;20034;-60
2024/01/22 03:28:49;;;;;;;;;;;11.10;99.90;;;;;;4997854;28;20426;-59
2024/01/22 03:31:29;;;;;;;3.33;0.90;;;11.10;99.90;;;;;;4997035;28;19917;-60
2024/01/22 03:33:56;;;;;;;0.98;0.60;;;11.20;99.90;;;;;;4997509;28;20129;-62
2024/01/22 03:36:23;;;;;;;1.77;0.77;;;11.30;99.90;;;;;;4996560;28;20402;-61
2024/01/22 03:38:49;;;;;;;2.83;0.93;;;11.30;99.90;;;;;;4997460;28;20110;-60
2024/01/22 03:41:15;;;;;;;1.00;0.52;;;11.40;99.90;;;;;;4997238;28;20070;-59
2024/01/22 03:43:42;;;;;;;2.05;0.85;;;11.40;99.90;;;;;;4996520;28;20034;-60
2024/01/22 03:46:09;;;;;;;0.85;0.50;;;11.40;99.90;;;;;;5012926;28;20034;-61
2024/01/22 03:48:35;;;;;;;1.70;0.50;;;11.50;99.90;;;;;;4997312;28;20030;-61
2024/01/22 03:51:00;;;;;;;1.17;0.60;;;11.70;99.90;;;;;;4997316;28;20030;-59
2024/01/22 03:53:27;;;;;;;1.10;0.60;;;11.80;99.90;;;;;;4997244;28;20042;-61
2024/01/22 03:55:53;;;;;;;1.65;0.60;;;11.90;99.90;;;;;;4997265;28;20095;-61
2024/01/22 03:58:18;;;;;;;0.93;0.60;;;11.90;99.90;;;;;;4996523;28;20073;-59
2024/01/22 04:00:44;;;;;;;1.67;0.70;;;11.90;99.90;;;;;;4997169;28;20031;-61
2024/01/22 04:03:10;;;;;;;1.25;0.57;;;12.00;99.90;;;;;;4997237;28;20033;-58
2024/01/22 04:05:37;;;;;;;1.73;0.50;;;12.00;99.90;;;;;;4997168;28;20045;-59
2024/01/22 04:08:03;;;;;;;2.55;0.50;;;12.00;99.90;;;;;;4997161;28;20298;-59
2024/01/22 04:10:29;;;;;;;1.00;0.57;;;12.10;99.90;;;;;;4997127;28;20072;-60
2024/01/22 04:12:56;;;;;;;2.03;0.50;;;12.10;99.90;;;;;;4996367;28;20425;-59
2024/01/22 04:15:23;;;;;;;0.90;0.50;;;12.10;99.90;;;;;;4997039;28;20026;-63
2024/01/22 04:17:49;;;;;;;1.13;0.57;;;12.10;99.90;;;;;;4997080;28;20034;-61
2024/01/22 04:20:15;;;;;;;2.42;0.57;;;12.10;99.90;;;;;;4996350;28;20421;-63
2024/01/22 04:22:40;;;;;;;0.85;0.50;;;12.10;99.90;;;;;;4997014;28;20182;-59
2024/01/22 04:25:07;;;;;;;1.70;0.57;;;12.10;99.90;;;;;;4997022;28;20383;-59
2024/01/22 04:27:32;;;;;;;1.73;0.70;;;12.10;99.90;;;;;;4997014;28;20421;-58
2024/01/22 04:29:58;;;;;;;2.47;0.50;;;12.10;99.90;;;;;;4996976;28;20117;-60
2024/01/22 04:32:24;;;;;;;1.00;0.52;;;12.20;99.90;;;;;;4995984;28;20069;-63
2024/01/22 04:34:50;;;;;;;2.28;0.60;;;12.20;99.90;;;;;;4996196;28;20053;-59
2024/01/22 04:37:16;;;;;;;2.72;0.73;;;12.20;99.90;;;;;;4996970;28;20398;-60
2024/01/22 04:39:42;;;;;;;1.67;0.50;;;12.20;99.90;;;;;;4996934;28;20394;-62
2024/01/22 04:42:09;;;;;;;1.42;0.40;;;12.30;99.90;;;;;;4996237;28;20141;-59
2024/01/22 04:44:35;;;;;;;3.17;0.60;;;12.30;99.90;;;;;;4999358;28;20026;-61
2024/01/22 04:47:01;;;;;;;2.15;0.60;;;12.30;99.90;;;;;;5000364;28;20421;-64
2024/01/22 04:49:27;;;;;;;2.15;0.40;;;12.20;99.90;;;;;;4999644;28;20062;-60
2024/01/22 04:51:54;;;;;;;1.98;0.60;;;12.00;99.90;;;;;;4999512;28;20045;-58
2024/01/22 04:54:20;;;;;;;1.15;0.50;;;12.00;99.90;;;;;;5000258;28;20030;-59
2024/01/22 04:56:47;;;;;;;1.40;0.57;;;12.00;99.90;;;;;;5000253;28;20037;-60
2024/01/22 04:59:13;;;;;;;2.30;0.70;;;12.00;99.90;;;;;;5000222;28;20228;-60
2024/01/22 05:01:40;;;;;;;1.85;0.88;;;11.80;99.90;;;;;;5015523;28;20034;-61
2024/01/22 05:04:06;;;;;;;3.53;0.80;;;11.60;99.90;;;;;;5000152;28;20088;-59
2024/01/22 05:06:32;;;;;;;1.15;0.63;;;11.50;99.90;;;;;;4999390;28;20113;-59
2024/01/22 05:08:58;;;;;;;1.40;0.60;;;11.40;99.90;;;;;;4999946;28;20426;-60
2024/01/22 05:11:24;;;;;;;2.15;0.80;;;11.40;99.90;;;;;;4983037;28;20042;-61
2024/01/22 05:13:51;;;;;;;5.57;0.85;;;11.30;99.90;;;;;;4983115;28;20026;-60
2024/01/22 05:16:17;;;;;;;2.45;0.80;;;11.40;99.90;;;;;;4999823;28;20050;-60
2024/01/22 05:18:44;;;;;;;1.75;0.50;;;11.40;99.90;;;;;;4999759;28;20101;-59
2024/01/22 05:21:11;;;;;;;2.33;0.60;;;11.40;99.90;;;;;;4982907;28;20042;-59
2024/01/22 05:23:37;;;;;;;2.53;0.55;;;11.30;99.90;;;;;;4998860;28;20038;-60
2024/01/22 05:26:03;;;;;;;2.08;0.88;;;11.30;99.90;;;;;;4999110;28;20064;-57
2024/01/22 05:28:29;;;;;;;2.70;0.82;;;11.30;99.90;;;;;;4999542;28;20046;-56
2024/01/22 05:30:55;;;;;;;1.98;0.70;;;11.20;99.90;;;;;;4998748;28;20034;-57
2024/01/22 05:33:21;;;;;;;1.98;0.85;;;11.10;99.90;;;;;;4998700;28;20112;-57
2024/01/22 05:35:47;;;;;;;3.20;1.00;;;11.10;99.90;;;;;;4999620;28;20042;-57
2024/01/22 05:38:14;;;;;;;2.75;0.90;;;11.10;99.90;;;;;;4999465;28;20049;-57
2024/01/22 05:40:40;;;;;;;3.10;1.00;;;11.10;99.90;;;;;;4998484;28;20310;-57
2024/01/22 05:43:06;;;;;;;4.25;1.15;;;11.10;99.90;;;;;;4999604;28;20034;-56
2024/01/22 05:45:32;;;;;;;2.42;1.00;;;11.10;99.90;;;;;;4999247;28;20026;-55
2024/01/22 05:47:57;;;;;;;3.17;1.00;;;11.30;99.90;;;;;;4999290;28;20038;-55
2024/01/22 05:50:23;;;;;;;5.20;1.30;;;11.30;99.90;;;;;;4999283;28;20117;-55
2024/01/22 05:52:49;;;;;;;4.57;1.48;;;11.30;99.90;;;;;;4999124;28;20041;-56
2024/01/22 05:55:15;;;;;;;2.65;1.30;;;11.30;99.90;;;;;;4999073;28;20042;-54
2024/01/22 05:57:40;;;;;;;4.10;1.00;;;11.10;99.90;;;;;;4998989;28;20034;-55
2024/01/22 06:00:12;;;;;;;2.13;0.90;;;11.20;99.90;;;;;;4998787;28;20169;-55
2024/01/22 06:02:42;;;;;;;1.42;1.02;;;11.10;99.90;;;;;;4998740;28;20053;-54
2024/01/22 06:05:11;;;;;;;2.45;1.00;;;11.00;99.90;;;;;;4998931;28;20026;-54
2024/01/22 06:07:37;;;;;;;1.35;0.90;;;10.90;99.90;;;;;;4982286;28;20034;-53
2024/01/22 06:10:05;;;;;;;2.10;0.75;;;10.90;99.90;;;;;;4998948;28;20092;-55
2024/01/22 06:12:32;;;;;;;2.03;0.98;;;10.90;99.90;;;;;;4998409;28;20035;-56
2024/01/22 06:14:58;;;;;;;1.10;0.90;;;10.90;99.90;;;;;;4998082;28;20046;-54
2024/01/22 06:17:24;;;;;;;1.80;0.90;;;10.90;99.90;;;;;;4998654;28;20282;-54
2024/01/22 06:19:57;;;;;;;1.58;0.98;;;10.80;99.90;;;;;;4998258;28;20065;-54
2024/01/22 06:22:23;;;;;;;3.28;0.90;;;10.80;99.90;;;;;;5014008;28;20042;-54
2024/01/22 06:24:49;;;;;;;1.77;0.95;;;10.80;99.90;;;;;;4998523;28;20108;-56
2024/01/22 06:27:15;;;;;;;1.83;1.10;;;10.80;99.90;;;;;;4997723;28;20034;-57
2024/01/22 06:29:41;;;;;;;2.05;1.08;;;10.90;99.90;;;;;;4998019;28;20052;-57
2024/01/22 06:32:07;;;;;;;3.65;0.95;;;10.90;99.90;;;;;;4997367;28;20144;-56
2024/01/22 06:34:33;;;;;;;3.53;0.98;;;10.80;99.90;;;;;;4997600;28;20038;-54
2024/01/22 06:36:59;;;;;;;2.08;1.00;;;10.80;99.90;;;;;;4997530;28;20038;-56
2024/01/22 06:39:26;;;;;;;2.65;0.80;;;10.80;99.90;;;;;;4997373;28;20038;-56
2024/01/22 06:41:51;;;;;;;3.30;0.90;;;10.90;99.90;;;;;;4997630;28;20398;-57
2024/01/22 06:44:17;;;;;;;2.90;1.00;;;10.90;99.90;;;;;;4997421;28;20117;-55
2024/01/22 06:46:43;;;;;;;2.28;0.75;;;10.90;99.90;;;;;;4981492;28;20038;-58
2024/01/22 06:49:09;;;;;;;3.35;0.90;;;10.90;99.90;;;;;;4997369;28;20170;-58
2024/01/22 06:51:35;;;;;;;1.85;0.70;;;11.00;99.90;;;;;;4997419;28;20038;-58
2024/01/22 06:54:00;;;;;;;2.25;0.95;;;11.00;99.90;;;;;;4997975;28;20093;-59
2024/01/22 06:56:26;;;;;;;2.25;0.85;;;11.00;99.90;;;;;;4998011;28;20325;-58
2024/01/22 06:58:52;;;;;;;4.57;0.98;;;11.00;99.90;;;;;;4997855;28;20030;-60
2024/01/22 07:01:19;;;;;;;6.03;0.88;;;11.00;99.90;;;;;;4997917;28;20096;-58
2024/01/22 07:03:45;;;;;;;2.75;1.00;;;11.10;99.90;;;;;;4997915;28;20061;-58
2024/01/22 07:06:11;;;;;;;2.15;0.95;;;11.10;99.90;;;;;;4996572;28;20096;-57
2024/01/22 07:08:36;;;;;;;7.72;0.95;;;11.10;99.90;;;;;;4997660;28;20355;-58
2024/01/22 07:11:02;;;;;;;7.00;0.95;;;11.10;99.90;;;;;;4997788;28;20034;-58
2024/01/22 07:13:32;;;;;;;4.47;1.10;;;11.10;99.90;;;;;;4998024;28;20069;-59
2024/01/22 07:16:01;;;;;;;6.57;1.58;;;11.10;99.90;;;;;;4997645;28;20126;-59
2024/01/22 07:18:26;;;;;;;8.13;1.40;;;11.10;99.90;;;;;;4997680;28;20338;-59
2024/01/22 07:20:53;;;;;;;9.70;2.67;;;11.10;99.90;;;;;;4997919;28;20079;-57
2024/01/22 07:23:19;;;;;;;12.07;2.10;;;11.10;99.90;;;;;;4980557;28;20038;-56
2024/01/22 07:25:45;;;;;;;13.27;2.25;;;11.20;99.90;;;;;;4997548;28;20026;-59
2024/01/22 07:28:11;;;;;;;11.77;1.95;;;11.30;99.90;;;;;;4996789;28;20026;-58
2024/01/22 07:30:37;;;;;;;18.00;2.40;;;11.30;99.90;;;;;;4997466;28;20054;-57
2024/01/22 07:33:03;;;;;;;11.80;2.45;;;11.20;99.90;;;;;;4996527;28;20065;-58
2024/01/22 07:35:33;;;;;;;11.60;1.88;;;11.20;99.90;;;;;;4997340;28;20034;-58
2024/01/22 07:37:59;;;;;;;22.67;2.50;;;11.30;99.90;;;;;;4997685;28;20138;-58
2024/01/22 07:40:24;;;;;;;19.38;2.67;;;11.20;99.90;;;;;;4997403;28;20151;-59
2024/01/22 07:42:50;;;;;;;17.15;2.22;;;11.30;99.90;;;;;;4997362;28;20058;-58
2024/01/22 07:45:16;;;;;;;19.73;2.80;;;11.20;99.90;;;;;;4980688;28;20038;-59
2024/01/22 07:47:43;;;;;;;19.40;3.35;;;11.20;99.90;;;;;;4996665;28;20045;-57
2024/01/22 07:50:14;;;;;;;19.30;2.42;;;11.10;99.90;;;;;;4997581;28;20034;-57
2024/01/22 07:52:40;;;;;;;15.55;2.33;;;11.10;99.90;;;;;;4996592;28;20031;-56
2024/01/22 07:55:07;;;;;;;8.10;1.73;;;11.10;99.90;;;;;;4996666;28;20041;-56
2024/01/22 07:57:34;;;;;;;15.95;2.40;;;11.10;99.90;;;;;;4997228;28;20104;-57
2024/01/22 08:00:00;;;;;;;16.10;2.22;;;11.00;99.90;;;;;;4997232;28;20057;-55
2024/01/22 08:02:26;;;;;;;15.07;1.88;;;11.00;99.90;;;;;;4997121;28;20401;-54
2024/01/22 08:04:52;;;;;;;15.98;2.15;;;11.00;99.90;;;;;;4997626;28;20030;-53
2024/01/22 08:07:19;;;;;;;16.27;1.95;;;11.00;99.90;;;;;;4997235;28;20415;-55
2024/01/22 08:09:46;;;;;;;19.15;2.78;;;11.00;99.90;;;;;;4964271;28;20064;-53
2024/01/22 08:12:11;;;;;;;10.93;2.17;;;10.90;99.90;;;;;;4997068;28;20059;-54
2024/01/22 08:14:37;;;;;;;12.82;2.33;;;10.90;99.90;;;;;;4997169;28;20301;-54
2024/01/22 08:17:03;;;;;;;17.50;2.83;;;11.00;99.90;;;;;;4996372;28;20247;-53
2024/01/22 08:19:30;;;;;;;17.05;2.70;;;11.10;99.90;;;;;;5000166;28;20030;-54
2024/01/22 08:21:56;;;;;;;12.90;1.75;;;11.10;99.90;;;;;;5000781;28;20018;-54
2024/01/22 08:24:23;;;;;;;15.48;2.38;;;11.20;99.90;;;;;;5000754;28;20275;-54
2024/01/22 08:26:49;;;;;;;14.48;1.98;;;11.20;99.90;;;;;;5001026;28;20023;-55
2024/01/22 08:29:17;;;;;;;16.15;2.22;;;11.10;99.90;;;;;;5001109;28;20089;-53
2024/01/22 08:31:43;;;;;;;17.02;2.28;;;11.00;99.90;;;;;;4999750;28;20421;-55
2024/01/22 08:34:08;;;;;;;14.88;2.30;;;10.90;99.90;;;;;;5000744;28;20026;-53
2024/01/22 08:36:34;;;;;;;15.57;3.47;;;10.90;99.90;;;;;;5000646;28;20035;-55
2024/01/22 08:39:00;;;;;;;19.95;3.20;;;10.80;99.90;;;;;;5000397;28;20042;-54
2024/01/22 08:41:29;;;;;;;13.02;2.65;;;10.90;99.90;;;;;;5000512;28;20405;-54
2024/01/22 08:43:59;;;;;;;18.35;2.38;;;10.80;99.90;;;;;;5000415;28;20031;-53
2024/01/22 08:46:25;;;;;;;17.25;2.80;;;10.80;99.90;;;;;;4999538;28;20077;-55
2024/01/22 08:48:51;;;;;;;9.95;2.30;;;10.80;99.90;;;;;;5000377;28;20046;-55
2024/01/22 08:51:17;;;;;;;18.58;2.38;;;10.70;99.90;;;;;;4999615;28;20042;-55
2024/01/22 08:53:43;;;;;;;16.00;2.90;;;10.70;99.90;;;;;;4999533;28;20038;-52
2024/01/22 08:56:09;;;;;;;14.75;2.38;;;10.70;99.90;;;;;;4999485;28;20093;-54
2024/01/22 08:58:35;;;;;;;18.50;2.63;;;10.70;99.90;;;;;;5000132;28;20023;-54
2024/01/22 09:01:05;;;;;;;15.32;2.58;;;10.80;99.90;;;;;;5000184;28;20030;-54
2024/01/22 09:03:34;;;;;;;14.35;2.03;;;10.80;99.90;;;;;;4999335;28;20122;-53
2024/01/22 09:06:00;;;;;;;12.40;2.15;;;10.80;99.90;;;;;;5000182;28;20154;-53
2024/01/22 09:08:27;;;;;;;15.95;2.05;;;10.80;99.90;;;;;;4999971;28;20018;-53
2024/01/22 09:10:53;;;;;;;11.27;1.80;;;10.80;99.90;;;;;;4999888;28;20326;-51
2024/01/22 09:13:19;;;;;;;14.27;2.00;;;10.80;99.90;;;;;;4999062;28;20038;-54
2024/01/22 09:15:45;;;;;;;9.18;1.90;;;10.80;99.90;;;;;;5000066;28;20042;-55
2024/01/22 09:18:11;;;;;;;9.68;2.05;;;10.80;99.90;;;;;;4999730;28;20030;-53
2024/01/22 09:20:37;;;;;;;11.48;2.08;;;10.80;99.90;;;;;;4998888;28;20092;-53
2024/01/22 09:23:03;;;;;;;12.65;2.15;;;10.80;99.90;;;;;;4999024;28;20054;-54
2024/01/22 09:25:29;;;;;;;11.40;2.08;;;10.80;99.90;;;;;;4999633;28;20122;-52
2024/01/22 09:27:55;;;;;;;12.05;2.28;;;10.80;99.90;;;;;;4998727;28;20486;-53
2024/01/22 09:30:20;;;;;;;14.25;2.08;;;10.70;99.90;;;;;;4999372;28;20110;-54
2024/01/22 09:32:46;;;;;;;11.65;2.42;;;10.70;99.90;;;;;;5014834;28;20076;-52
2024/01/22 09:35:14;;;;;;;9.02;1.92;;;10.70;99.90;;;;;;4999515;28;20077;-52
2024/01/22 09:37:40;;;;;;;14.40;2.03;;;10.70;99.90;;;;;;4999337;28;20034;-52
2024/01/22 09:40:11;;;;;;;13.38;2.08;;;10.80;99.90;;;;;;4998873;28;20035;-54
2024/01/22 09:42:39;;;;;;;14.15;3.17;;;10.90;99.90;;;;;;4999306;28;20092;-54
2024/01/22 09:45:08;;;;;;;14.60;2.90;;;11.00;99.90;;;;;;4999383;28;20045;-55
2024/01/22 09:47:36;;;;;;;15.70;2.75;;;11.00;99.90;;;;;;4999209;28;20026;-55
2024/01/22 09:50:02;;;;;;;13.75;2.30;;;10.90;99.90;;;;;;4999404;28;20065;-55
2024/01/22 09:52:29;;;;;;;14.48;2.60;;;11.00;99.90;;;;;;4999171;28;20318;-53
2024/01/22 09:54:56;;;;;;;14.18;2.30;;;11.00;99.90;;;;;;4999091;28;20113;-53
2024/01/22 09:57:29;;;;;;;17.15;2.65;;;11.00;99.90;;;;;;4999060;28;20125;-51
2024/01/22 09:59:56;;;;;;;11.23;1.80;;;10.90;99.90;;;;;;4999004;28;20030;-53
2024/01/22 10:02:22;;;;;;;10.75;2.00;;;10.90;99.90;;;;;;4997948;28;20121;-54
2024/01/22 10:04:48;;;;;;;15.68;2.25;;;10.90;99.90;;;;;;4999173;28;20106;-55
2024/01/22 10:07:15;;;;;;;16.50;2.60;;;10.90;99.90;;;;;;4998806;28;20034;-56
2024/01/22 10:09:42;;;;;;;16.25;2.40;;;10.90;99.90;;;;;;4998837;28;20053;-54
2024/01/22 10:12:08;;;;;;;17.65;2.78;;;10.90;99.90;;;;;;4998037;28;20117;-53
2024/01/22 10:14:45;;;;;;;19.67;3.30;;;10.90;99.90;;;;;;4998775;28;20109;-55
2024/01/22 10:17:20;;;;;;;16.27;3.08;;;10.90;99.90;;;;;;4998221;28;20695;-57
2024/01/22 10:19:49;;;;;;;22.65;3.92;;;11.00;99.90;;;;;;5014238;28;20084;-54
2024/01/22 10:22:22;;;;;;;28.33;3.35;;;11.10;99.90;;;;;;4998554;28;20386;-54
2024/01/22 10:25:01;;;;;;;18.35;3.78;;;11.10;99.90;;;;;;4997999;28;20035;-53
2024/01/22 10:27:27;;;;;;;41.28;3.95;;;11.10;99.90;;;;;;4998793;28;20026;-54
2024/01/22 10:30:11;;;;;;;28.30;4.88;;;11.00;99.90;;;;;;4997781;28;20121;-54
2024/01/22 10:32:37;;;;;;;32.25;3.97;;;10.90;99.90;;;;;;4998242;28;20050;-55
2024/01/22 10:35:03;;;;;;;31.85;5.28;;;11.00;99.90;;;;;;4998298;28;20302;-55
2024/01/22 10:37:30;;;;;;;32.83;4.85;;;11.00;99.90;;;;;;4998336;28;20038;-56
2024/01/22 10:40:01;;;;;;;30.52;4.45;;;11.00;99.90;;;;;;4997427;28;20381;-55
2024/01/22 10:42:27;;;;;;;32.85;4.55;;;11.00;99.90;;;;;;4997705;28;20038;-56
2024/01/22 10:44:55;;;;;;;30.20;4.35;;;10.90;99.90;;;;;;4997503;28;20394;-55
2024/01/22 10:47:21;;;;;;;31.42;5.18;;;10.90;99.90;;;;;;4998007;28;20037;-57
2024/01/22 10:49:47;;;;;;;28.40;4.47;;;11.00;99.90;;;;;;4998237;28;20424;-58
2024/01/22 10:52:14;;;;;;;33.97;4.97;;;10.90;99.90;;;;;;4998190;28;20121;-56
2024/01/22 10:54:40;;;;;;;34.80;4.68;;;10.90;99.90;;;;;;4997928;28;20035;-56
2024/01/22 10:57:14;;;;;;;27.10;4.38;;;10.90;99.90;;;;;;4997922;28;20026;-58
2024/01/22 10:59:48;;;;;;;33.72;5.13;;;10.90;99.90;;;;;;4997948;28;20148;-57
2024/01/22 11:02:25;;;;;;;35.05;4.97;;;10.90;99.90;;;;;;5013322;28;20041;-57
2024/01/22 11:04:57;;;;;;;36.63;4.40;;;10.90;99.90;;;;;;5013480;28;20030;-57
2024/01/22 11:07:28;;;;;;;37.05;5.25;;;10.90;99.90;;;;;;4997860;28;20027;-57
2024/01/22 11:09:57;;;;;;;36.88;5.43;;;10.90;99.90;;;;;;4997749;28;20044;-56
2024/01/22 11:12:25;;;;;;;35.55;4.85;;;11.00;99.90;;;;;;4997551;28;20437;-56
2024/01/22 11:14:51;;;;;;;40.60;5.78;;;11.10;99.90;;;;;;4997870;28;20062;-58
2024/01/22 11:17:18;;;;;;;28.52;4.50;;;11.20;99.90;;;;;;4980856;28;20077;-59
2024/01/22 11:19:44;;;;;;;36.95;5.50;;;11.20;99.90;;;;;;4996860;28;20379;-58
2024/01/22 11:22:23;;;;;;;34.42;5.30;;;11.20;99.90;;;;;;4997308;28;20034;-58
2024/01/22 11:25:02;;;;;;;29.33;5.25;;;11.10;99.90;;;;;;4996851;28;20105;-58
2024/01/22 11:27:39;;;;;;;25.30;4.72;;;11.20;99.90;;;;;;4997347;28;20034;-56
2024/01/22 11:30:38;;;;;;;33.83;5.45;;;11.30;99.90;;;;;;4997423;28;20030;-57
2024/01/22 11:33:33;;;;;;;36.33;5.30;;;11.20;99.90;;;;;;4975969;28;20066;-57
2024/01/22 11:36:00;;;;;;;29.48;4.53;;;11.40;99.90;;;;;;4988966;28;20058;-57
2024/01/22 11:38:53;;;;;;;29.75;4.63;;;11.50;99.90;;;;;;4997222;28;20030;-58
2024/01/22 11:41:30;;;;;;;24.52;4.30;;;11.50;99.90;;;;;;4996623;28;20469;-57
2024/01/22 11:43:56;;;;;;;29.42;5.30;;;11.70;99.90;;;;;;4997470;28;20050;-57
2024/01/22 11:46:21;;;;;;;28.15;4.93;;;11.70;99.90;;;;;;4997227;28;20065;-58
2024/01/22 11:48:47;;;;;;;29.42;4.32;;;11.70;99.90;;;;;;4997219;28;20077;-60
2024/01/22 11:51:13;;;;;;;27.52;4.05;;;11.70;99.90;;;;;;4997368;28;20104;-58
2024/01/22 11:53:53;;;;;;;26.75;4.40;;;12.00;99.90;;;;;;5000886;28;20424;-58
2024/01/22 11:56:23;;;;;;;27.45;4.00;;;12.10;99.90;;;;;;5016846;28;20066;-58
2024/01/22 11:59:02;;;;;;;22.48;3.90;;;12.10;99.90;;;;;;5001255;28;20093;-59
2024/01/22 12:01:28;;;;;;;20.70;3.72;;;12.10;99.90;;;;;;5001188;28;20071;-58
2024/01/22 12:03:54;;;;;;;23.98;4.38;;;12.10;99.90;;;;;;5000355;28;20405;-58
2024/01/22 12:06:20;;;;;;;23.02;3.20;;;12.20;99.90;;;;;;5001034;28;20023;-58
2024/01/22 12:08:58;;;;;;;17.60;3.08;;;12.30;99.90;;;;;;5001120;28;20058;-58
2024/01/22 12:11:35;;;;;;;22.23;3.70;;;12.60;99.90;;;;;;5000943;28;20050;-57
2024/01/22 12:14:01;;;;;;;13.90;3.15;;;12.60;99.90;;;;;;5001014;28;20349;-57
2024/01/22 12:16:26;;;;;;;16.17;3.35;;;12.70;96.50;;;;;;5000191;28;20038;-58
2024/01/22 12:18:52;;;;;;;20.52;3.10;;;12.60;97.60;;;;;;4983979;28;20042;-57
2024/01/22 12:21:20;;;;;;;21.75;3.33;;;12.70;98.70;;;;;;5000167;28;20306;-57
2024/01/22 12:23:46;;;;;;;19.80;3.30;;;12.80;93.10;;;;;;5000594;28;20023;-57
2024/01/22 12:26:23;;;;;;;20.13;3.60;;;12.60;91.50;;;;;;4999673;28;20030;-58
2024/01/22 12:28:52;;;;;;;23.02;2.83;;;12.50;94.80;;;;;;5000874;28;20034;-64
2024/01/22 12:31:20;;;;;;;15.75;2.88;;;12.40;93.00;;;;;;5000522;28;20053;-57
2024/01/22 12:33:46;;;;;;;12.73;2.58;;;12.20;92.00;;;;;;4999674;28;20046;-56
2024/01/22 12:36:14;;;;;;;11.10;2.35;;;12.30;85.80;;;;;;4999899;28;20275;-58
2024/01/22 12:38:53;;;;;;;17.10;2.92;;;12.00;93.70;;;;;;5000239;28;20026;-57
2024/01/22 12:41:21;;;;;;;19.45;2.88;;;12.10;95.80;;;;;;5000300;28;20044;-57
2024/01/22 12:43:48;;;;;;;15.30;2.92;;;12.00;94.60;;;;;;5000242;28;20390;-57